Terminal Aerodrome Forecast
Issued by NWS

Home | Current Version | Previous Version | Text Only | Print | Product List | Glossary On
Versions: 1 2 3 4 5 6 7 8 9 10 11 12 13 14 15 16 17 18 19 20 21 22 23 24 25 26 27 28 29
000
FTUS46 KOTX 031126
TAFCOE
TAF
KCOE 031126Z 0312/0412 17011KT P6SM SCT015 BKN080
     FM032000 21007KT P6SM VCSH BKN060 BKN100
     FM040300 13004KT P6SM SCT050 BKN100
      AMD LTD TO CLD AND VIS=

USA.gov is the U.S. government's official web portal to all federal, state and local government web resources and services.